createdAt,value
2023-01-13T00:01:27.236Z,6.50
2023-01-13T00:03:55.630Z,6.27
2023-01-13T00:06:26.630Z,5.97
2023-01-13T00:08:56.289Z,5.87
2023-01-13T00:11:26.055Z,6.27
2023-01-13T00:13:54.416Z,5.77
2023-01-13T00:16:22.809Z,6.63
2023-01-13T00:18:52.271Z,6.33
2023-01-13T00:21:21.579Z,5.73
2023-01-13T00:23:50.158Z,6.60
2023-01-13T00:26:22.435Z,5.57
2023-01-13T00:28:50.915Z,5.20
2023-01-13T00:31:20.939Z,5.70
2023-01-13T00:33:51.016Z,5.73
2023-01-13T00:36:21.452Z,5.43
2023-01-13T00:38:50.262Z,4.77
2023-01-13T00:41:21.199Z,5.37
2023-01-13T00:43:49.317Z,4.77
2023-01-13T00:46:19.157Z,4.87
2023-01-13T00:48:51.696Z,6.33
2023-01-13T00:51:21.545Z,6.30
2023-01-13T00:53:51.604Z,6.00
2023-01-13T00:56:38.587Z,6.27
2023-01-13T00:59:08.481Z,6.17
2023-01-13T01:01:36.825Z,6.83
2023-01-13T01:04:05.183Z,6.40
2023-01-13T01:06:33.671Z,7.13
2023-01-13T01:09:02.034Z,6.77
2023-01-13T01:11:33.100Z,6.23
2023-01-13T01:14:02.985Z,6.40
2023-01-13T01:16:32.804Z,6.40
2023-01-13T01:19:01.979Z,6.20
2023-01-13T01:21:30.590Z,6.60
2023-01-13T01:24:01.508Z,6.50
2023-01-13T01:26:32.272Z,6.13
2023-01-13T01:29:02.606Z,5.73
2023-01-13T01:31:32.530Z,6.07
2023-01-13T01:34:01.716Z,5.93
2023-01-13T01:36:30.973Z,5.70
2023-01-13T01:39:01.193Z,6.03
2023-01-13T01:41:32.181Z,6.10
2023-01-13T01:44:03.063Z,5.57
2023-01-13T01:46:33.012Z,5.97
2023-01-13T01:49:04.781Z,6.47
2023-01-13T01:51:36.971Z,5.40
2023-01-13T01:54:09.103Z,4.87
2023-01-13T01:56:37.871Z,5.43
2023-01-13T01:59:07.385Z,4.80
2023-01-13T02:01:36.288Z,4.93
2023-01-13T02:04:11.475Z,4.57
2023-01-13T02:06:40.413Z,4.40
2023-01-13T02:09:09.175Z,4.77
2023-01-13T02:11:55.458Z,4.47
2023-01-13T02:14:27.538Z,3.93
2023-01-13T02:17:05.025Z,4.13
2023-01-13T02:19:51.231Z,4.83
2023-01-13T02:22:46.099Z,3.97
2023-01-13T02:25:38.940Z,4.30
2023-01-13T02:28:26.822Z,3.97
2023-01-13T02:31:15.844Z,4.07
2023-01-13T02:33:52.215Z,3.83
2023-01-13T02:36:25.391Z,4.43
2023-01-13T02:38:56.387Z,4.33
2023-01-13T02:41:46.799Z,4.37
2023-01-13T02:44:18.106Z,3.90
2023-01-13T02:46:52.040Z,4.00
2023-01-13T02:49:28.855Z,4.00
2023-01-13T02:52:01.122Z,4.53
2023-01-13T02:54:31.646Z,4.30
2023-01-13T02:57:01.789Z,4.13
2023-01-13T02:59:31.348Z,3.77
2023-01-13T03:02:01.329Z,4.53
2023-01-13T03:04:48.401Z,3.87
2023-01-13T03:07:32.428Z,3.70
2023-01-13T03:10:06.768Z,3.57
2023-01-13T03:12:39.508Z,3.33
2023-01-13T03:15:11.747Z,3.70
2023-01-13T03:17:43.622Z,4.07
2023-01-13T03:20:20.340Z,3.60
2023-01-13T03:22:53.254Z,3.77
2023-01-13T03:25:24.720Z,4.30
2023-01-13T03:27:54.895Z,4.37
2023-01-13T03:30:28.805Z,3.87
2023-01-13T03:33:03.617Z,4.43
2023-01-13T03:35:34.494Z,3.40
2023-01-13T03:38:05.963Z,4.10
2023-01-13T03:40:35.365Z,3.63
2023-01-13T03:43:24.169Z,4.10
2023-01-13T03:45:57.511Z,3.63
2023-01-13T03:48:28.974Z,3.63
2023-01-13T03:51:01.105Z,3.53
2023-01-13T03:53:31.877Z,3.30
2023-01-13T03:56:03.117Z,3.50
2023-01-13T03:58:33.882Z,3.33
2023-01-13T04:01:07.280Z,4.03
2023-01-13T04:03:40.758Z,3.13
2023-01-13T04:06:14.307Z,3.13
2023-01-13T04:08:46.497Z,3.10
2023-01-13T04:11:18.617Z,3.23
2023-01-13T04:13:48.778Z,2.80
2023-01-13T04:16:17.326Z,3.20
2023-01-13T04:18:47.073Z,3.40
2023-01-13T04:21:15.545Z,2.90
2023-01-13T04:23:44.237Z,2.60
2023-01-13T04:26:12.799Z,2.87
2023-01-13T04:28:41.567Z,3.23
2023-01-13T04:31:10.066Z,3.33
2023-01-13T04:33:38.438Z,3.40
2023-01-13T04:36:08.827Z,3.27
2023-01-13T04:38:37.205Z,2.70
2023-01-13T04:41:05.627Z,3.30
2023-01-13T04:43:34.402Z,2.97
2023-01-13T04:46:02.777Z,3.00
2023-01-13T04:48:31.174Z,3.20
2023-01-13T04:50:59.841Z,2.90
2023-01-13T04:53:29.772Z,3.40
2023-01-13T04:55:58.100Z,2.80
2023-01-13T04:58:26.505Z,2.70
2023-01-13T05:00:55.552Z,2.83
2023-01-13T05:03:24.444Z,2.83
2023-01-13T05:05:53.236Z,2.83
2023-01-13T05:08:21.653Z,2.77
2023-01-13T05:10:51.428Z,2.73
2023-01-13T05:13:37.560Z,3.17
2023-01-13T05:16:23.920Z,2.93
2023-01-13T05:18:52.440Z,2.80
2023-01-13T05:21:52.894Z,2.77
2023-01-13T05:24:38.998Z,2.97
2023-01-13T05:27:08.837Z,2.93
2023-01-13T05:29:37.296Z,2.90
2023-01-13T05:32:08.303Z,2.77
2023-01-13T05:34:36.801Z,3.13
2023-01-13T05:37:07.420Z,3.10
2023-01-13T05:39:56.143Z,3.07
2023-01-13T05:42:43.591Z,3.10
2023-01-13T05:45:12.619Z,3.37
2023-01-13T05:47:41.022Z,3.27
2023-01-13T05:50:09.776Z,3.23
2023-01-13T05:52:38.196Z,3.07
2023-01-13T05:55:07.086Z,3.73
2023-01-13T05:57:36.943Z,3.80
2023-01-13T06:00:05.756Z,3.70
2023-01-13T06:02:34.373Z,3.80
2023-01-13T06:05:02.891Z,3.73
2023-01-13T06:07:31.421Z,3.67
2023-01-13T06:10:00.058Z,3.67
2023-01-13T06:12:29.451Z,3.43
2023-01-13T06:14:59.162Z,3.67
2023-01-13T06:17:27.493Z,3.27
2023-01-13T06:19:55.968Z,4.17
2023-01-13T06:22:27.127Z,3.03
2023-01-13T06:24:56.242Z,3.50
2023-01-13T06:27:24.592Z,3.47
2023-01-13T06:29:52.999Z,3.10
2023-01-13T06:32:24.837Z,3.03
2023-01-13T06:34:57.588Z,2.80
2023-01-13T06:37:26.419Z,3.70
2023-01-13T06:39:58.105Z,2.80
2023-01-13T06:42:44.396Z,3.07
2023-01-13T06:45:12.736Z,2.80
2023-01-13T06:47:43.464Z,2.70
2023-01-13T06:50:12.365Z,3.13
2023-01-13T06:52:40.785Z,3.20
2023-01-13T06:55:16.141Z,3.40
2023-01-13T06:57:52.052Z,3.17
2023-01-13T07:00:22.056Z,4.00
2023-01-13T07:02:51.924Z,3.50
2023-01-13T07:05:21.276Z,3.40
2023-01-13T07:07:49.645Z,3.73
2023-01-13T07:10:22.387Z,2.90
2023-01-13T07:13:08.867Z,2.97
2023-01-13T07:15:37.430Z,2.93
2023-01-13T07:18:07.274Z,3.07
2023-01-13T07:20:35.702Z,3.10
2023-01-13T07:23:04.085Z,3.70
2023-01-13T07:25:32.665Z,3.57
2023-01-13T07:28:01.222Z,4.10
2023-01-13T07:30:29.529Z,3.77
2023-01-13T07:32:59.001Z,4.20
2023-01-13T07:35:28.416Z,3.50
2023-01-13T07:37:56.924Z,3.37
2023-01-13T07:40:25.318Z,3.20
2023-01-13T07:43:11.534Z,3.20
2023-01-13T07:45:39.937Z,3.50
2023-01-13T07:48:08.508Z,3.73
2023-01-13T07:50:38.314Z,3.17
2023-01-13T07:53:07.029Z,3.20
2023-01-13T07:55:35.383Z,3.47
2023-01-13T07:58:04.027Z,3.10
2023-01-13T08:00:32.691Z,3.37
2023-01-13T08:03:01.966Z,2.63
2023-01-13T08:05:30.390Z,2.87
2023-01-13T08:08:00.175Z,2.83
2023-01-13T08:10:28.556Z,2.90
2023-01-13T08:13:14.787Z,3.30
2023-01-13T08:15:43.290Z,3.73
2023-01-13T08:18:11.764Z,2.93
2023-01-13T08:20:39.843Z,3.00
2023-01-13T08:23:09.313Z,3.63
2023-01-13T08:25:37.659Z,2.60
2023-01-13T08:28:06.139Z,3.47
2023-01-13T08:30:37.105Z,3.63
2023-01-13T08:33:08.371Z,3.67
2023-01-13T08:35:38.112Z,3.10
2023-01-13T08:38:06.500Z,3.53
2023-01-13T08:40:36.335Z,3.00
2023-01-13T08:43:04.732Z,3.03
2023-01-13T08:45:33.100Z,3.30
2023-01-13T08:48:01.459Z,2.93
2023-01-13T08:50:29.859Z,2.70
2023-01-13T08:52:58.279Z,2.63
2023-01-13T08:55:26.836Z,3.27
2023-01-13T08:58:14.254Z,4.03
2023-01-13T09:00:43.578Z,3.80
2023-01-13T09:03:11.984Z,3.97
2023-01-13T09:05:40.046Z,3.50
2023-01-13T09:08:08.464Z,3.30
2023-01-13T09:10:36.917Z,2.87
2023-01-13T09:13:11.843Z,2.67
2023-01-13T09:15:40.606Z,3.10
2023-01-13T09:18:08.990Z,3.43
2023-01-13T09:20:37.860Z,3.60
2023-01-13T09:23:09.893Z,2.70
2023-01-13T09:25:38.910Z,3.23
2023-01-13T09:28:09.233Z,3.27
2023-01-13T09:30:39.145Z,2.40
2023-01-13T09:33:25.412Z,2.97
2023-01-13T09:35:53.764Z,3.63
2023-01-13T09:38:22.094Z,3.60
2023-01-13T09:40:50.947Z,3.40
2023-01-13T09:43:40.152Z,2.90
2023-01-13T09:46:36.258Z,3.37
2023-01-13T09:49:05.335Z,3.20
2023-01-13T09:51:35.664Z,3.30
2023-01-13T09:54:08.317Z,2.80
2023-01-13T09:56:36.692Z,2.87
2023-01-13T09:59:06.687Z,2.97
2023-01-13T10:01:42.890Z,3.00
2023-01-13T10:04:12.402Z,2.83
2023-01-13T10:06:42.554Z,3.00
2023-01-13T10:09:15.872Z,3.00
2023-01-13T10:12:03.939Z,3.90
2023-01-13T10:14:36.679Z,3.63
2023-01-13T10:17:11.825Z,3.20
2023-01-13T10:19:43.199Z,2.67
2023-01-13T10:22:19.824Z,3.27
2023-01-13T10:25:03.312Z,3.60
2023-01-13T10:27:34.552Z,3.50
2023-01-13T10:30:14.001Z,3.10
2023-01-13T10:32:44.769Z,3.30
2023-01-13T10:35:13.052Z,3.00
2023-01-13T10:37:41.631Z,3.20
2023-01-13T10:40:19.179Z,2.90
2023-01-13T10:42:47.648Z,4.23
2023-01-13T10:45:25.523Z,3.10
2023-01-13T10:48:07.248Z,3.43
2023-01-13T10:50:37.203Z,3.77
2023-01-13T10:53:18.300Z,3.63
2023-01-13T10:55:59.766Z,3.70
2023-01-13T10:58:28.928Z,3.50
2023-01-13T11:01:03.014Z,3.47
2023-01-13T11:03:38.008Z,2.97
2023-01-13T11:06:06.775Z,3.73
2023-01-13T11:08:45.222Z,4.40
2023-01-13T11:11:44.179Z,3.33
2023-01-13T11:14:37.036Z,4.07
2023-01-13T11:17:16.027Z,3.23
2023-01-13T11:19:49.582Z,4.50
2023-01-13T11:22:19.298Z,3.23
2023-01-13T11:24:53.371Z,3.60
2023-01-13T11:27:24.451Z,3.20
2023-01-13T11:30:03.750Z,3.77
2023-01-13T11:32:37.445Z,3.77
2023-01-13T11:35:17.216Z,4.00
2023-01-13T11:37:49.334Z,3.70
2023-01-13T11:40:20.529Z,3.93
2023-01-13T11:42:53.771Z,4.03
2023-01-13T11:45:23.805Z,3.80
2023-01-13T11:47:57.205Z,3.47
2023-01-13T11:50:31.300Z,3.60
2023-01-13T11:53:14.465Z,3.43
2023-01-13T11:55:48.303Z,4.00
2023-01-13T11:58:49.481Z,4.00
2023-01-13T12:01:31.219Z,3.27
2023-01-13T12:04:06.260Z,3.73
2023-01-13T12:06:37.356Z,3.60
2023-01-13T12:09:12.788Z,4.07
2023-01-13T12:11:58.642Z,4.60
2023-01-13T12:14:39.280Z,4.07
2023-01-13T12:17:10.222Z,3.73
2023-01-13T12:19:40.767Z,3.50
2023-01-13T12:22:11.568Z,4.00
2023-01-13T12:24:43.263Z,3.90
2023-01-13T12:27:14.787Z,3.43
2023-01-13T12:29:43.180Z,3.07
2023-01-13T12:32:14.396Z,3.30
2023-01-13T12:34:53.561Z,2.87
2023-01-13T12:37:24.483Z,3.20
2023-01-13T12:39:59.824Z,2.47
2023-01-13T12:42:48.465Z,3.23
2023-01-13T12:45:28.602Z,3.40
2023-01-13T12:47:57.314Z,3.27
2023-01-13T12:50:42.086Z,2.87
2023-01-13T12:53:30.909Z,3.17
2023-01-13T12:56:14.125Z,3.30
2023-01-13T12:58:42.539Z,3.63
2023-01-13T13:01:13.222Z,3.77
2023-01-13T13:03:41.852Z,3.30
2023-01-13T13:06:19.551Z,3.40
2023-01-13T13:09:04.498Z,3.27
2023-01-13T13:11:52.407Z,2.90
2023-01-13T13:14:35.718Z,2.30
2023-01-13T13:17:04.314Z,3.03
2023-01-13T13:19:45.961Z,2.97
2023-01-13T13:22:23.088Z,3.13
2023-01-13T13:25:09.449Z,2.83
2023-01-13T13:27:41.967Z,2.93
2023-01-13T13:30:14.889Z,3.43
2023-01-13T13:32:52.823Z,3.93
2023-01-13T13:35:33.815Z,3.20
2023-01-13T13:38:29.860Z,3.27
2023-01-13T13:41:16.008Z,3.60
2023-01-13T13:44:02.990Z,3.37
2023-01-13T13:46:50.482Z,4.20
2023-01-13T13:49:19.800Z,3.93
2023-01-13T13:51:55.235Z,4.00
2023-01-13T13:54:25.137Z,3.90
2023-01-13T13:56:53.934Z,4.03
2023-01-13T13:59:24.650Z,4.17
2023-01-13T14:02:00.942Z,5.00
2023-01-13T14:04:31.755Z,4.00
2023-01-13T14:07:01.530Z,4.90
2023-01-13T14:09:41.491Z,4.40
2023-01-13T14:12:17.141Z,4.37
2023-01-13T14:14:45.837Z,4.40
2023-01-13T14:17:20.373Z,3.63
2023-01-13T14:19:53.466Z,4.33
2023-01-13T14:22:22.453Z,5.50
2023-01-13T14:24:55.767Z,4.43
2023-01-13T14:27:26.318Z,3.93
2023-01-13T14:29:55.502Z,3.10
2023-01-13T14:32:24.833Z,3.10
2023-01-13T14:34:53.902Z,2.50
2023-01-13T14:37:35.090Z,3.17
2023-01-13T14:40:05.253Z,3.03
2023-01-13T14:42:35.692Z,2.60
2023-01-13T14:45:04.275Z,2.60
2023-01-13T14:47:34.075Z,2.80
2023-01-13T14:50:04.573Z,2.90
2023-01-13T14:52:33.831Z,3.23
2023-01-13T14:55:20.965Z,4.10
2023-01-13T14:57:50.859Z,3.00
2023-01-13T15:00:23.599Z,3.20
2023-01-13T15:03:01.756Z,3.90
2023-01-13T15:05:31.936Z,4.10
2023-01-13T15:08:01.364Z,3.40
2023-01-13T15:10:30.604Z,4.77
2023-01-13T15:13:01.525Z,4.20
2023-01-13T15:15:32.977Z,4.50
2023-01-13T15:18:01.974Z,3.30
2023-01-13T15:20:30.450Z,4.20
2023-01-13T15:22:59.727Z,4.33
2023-01-13T15:25:33.267Z,3.67
2023-01-13T15:28:03.297Z,4.73
2023-01-13T15:30:31.935Z,4.60
2023-01-13T15:33:00.829Z,2.87
2023-01-13T15:35:30.260Z,2.50
2023-01-13T15:37:59.068Z,3.23
2023-01-13T15:40:28.906Z,2.63
2023-01-13T15:43:15.173Z,3.53
2023-01-13T15:46:02.979Z,3.07
2023-01-13T15:48:32.943Z,3.67
2023-01-13T15:51:02.551Z,2.67
2023-01-13T15:53:32.748Z,3.20
2023-01-13T15:56:01.654Z,3.27
2023-01-13T15:58:31.851Z,3.47
2023-01-13T16:01:01.758Z,3.33
2023-01-13T16:03:31.284Z,3.60
2023-01-13T16:05:59.883Z,3.83
2023-01-13T16:08:28.359Z,3.50
2023-01-13T16:10:56.760Z,3.73
2023-01-13T16:13:25.118Z,3.77
2023-01-13T16:15:53.385Z,3.33
2023-01-13T16:18:24.751Z,3.60
2023-01-13T16:20:55.127Z,3.73
2023-01-13T16:23:23.977Z,3.87
2023-01-13T16:25:52.487Z,3.47
2023-01-13T16:28:22.069Z,3.73
2023-01-13T16:30:50.468Z,4.00
2023-01-13T16:33:19.201Z,3.70
2023-01-13T16:36:10.549Z,3.97
2023-01-13T16:38:37.532Z,3.47
2023-01-13T16:41:06.373Z,3.80
2023-01-13T16:43:34.790Z,3.73
2023-01-13T16:46:03.279Z,4.07
2023-01-13T16:48:31.873Z,3.97
2023-01-13T16:51:01.486Z,3.27
2023-01-13T16:53:29.869Z,4.27
2023-01-13T16:55:58.198Z,3.50
2023-01-13T16:58:26.220Z,4.23
2023-01-13T17:00:54.776Z,3.10
2023-01-13T17:03:22.949Z,3.70
2023-01-13T17:05:51.303Z,3.50
2023-01-13T17:08:22.023Z,3.87
2023-01-13T17:10:52.511Z,3.63
2023-01-13T17:13:21.084Z,3.27
2023-01-13T17:15:49.580Z,3.50
2023-01-13T17:18:17.911Z,3.93
2023-01-13T17:20:46.376Z,3.73
2023-01-13T17:23:15.065Z,3.60
2023-01-13T17:25:44.931Z,3.23
2023-01-13T17:28:13.924Z,4.03
2023-01-13T17:30:45.064Z,3.27
2023-01-13T17:33:13.363Z,3.83
2023-01-13T17:35:41.811Z,3.50
2023-01-13T17:38:10.245Z,3.63
2023-01-13T17:40:39.034Z,3.13
2023-01-13T17:43:08.735Z,3.20
2023-01-13T17:45:41.974Z,3.70
2023-01-13T17:48:10.507Z,3.63
2023-01-13T17:50:39.685Z,3.73
2023-01-13T17:53:08.236Z,3.70
2023-01-13T17:55:36.675Z,4.10
2023-01-13T17:58:05.307Z,3.67
2023-01-13T18:00:35.035Z,3.30
2023-01-13T18:03:03.435Z,4.77
2023-01-13T18:05:34.105Z,3.53
2023-01-13T18:08:02.499Z,4.37
2023-01-13T18:10:30.889Z,3.03
2023-01-13T18:12:59.215Z,3.80
2023-01-13T18:15:28.863Z,4.17
2023-01-13T18:17:58.593Z,3.77
2023-01-13T18:20:44.697Z,3.43
2023-01-13T18:23:35.463Z,4.23
2023-01-13T18:26:35.734Z,4.07
2023-01-13T18:29:04.115Z,3.17
2023-01-13T18:31:32.514Z,3.50
2023-01-13T18:34:02.383Z,3.30
2023-01-13T18:36:30.862Z,3.93
2023-01-13T18:38:59.294Z,3.03
2023-01-13T18:41:44.974Z,4.00
2023-01-13T18:44:13.281Z,3.50
2023-01-13T18:46:41.709Z,2.90
2023-01-13T18:49:14.005Z,3.60
2023-01-13T18:51:43.521Z,3.10
2023-01-13T18:54:11.958Z,3.40
2023-01-13T18:56:40.036Z,3.80
2023-01-13T18:59:08.136Z,4.73
2023-01-13T19:01:40.960Z,4.33
2023-01-13T19:04:15.361Z,3.60
2023-01-13T19:06:49.145Z,3.80
2023-01-13T19:09:17.508Z,3.47
2023-01-13T19:11:46.798Z,3.17
2023-01-13T19:14:34.078Z,3.47
2023-01-13T19:17:02.953Z,3.67
2023-01-13T19:19:31.625Z,3.60
2023-01-13T19:22:01.745Z,3.77
2023-01-13T19:24:30.351Z,3.17
2023-01-13T19:26:58.694Z,3.10
2023-01-13T19:29:27.088Z,3.27
2023-01-13T19:31:55.489Z,3.57
2023-01-13T19:34:25.334Z,3.53
2023-01-13T19:36:53.961Z,3.40
2023-01-13T19:39:23.932Z,4.17
2023-01-13T19:42:10.061Z,5.03
2023-01-13T19:44:55.886Z,3.60
2023-01-13T19:47:24.299Z,3.40
2023-01-13T19:49:52.337Z,3.57
2023-01-13T19:52:20.855Z,3.17
2023-01-13T19:54:51.923Z,5.07
2023-01-13T19:57:20.754Z,3.67
2023-01-13T19:59:49.164Z,3.50
2023-01-13T20:02:27.489Z,4.13
2023-01-13T20:04:56.988Z,3.23
2023-01-13T20:07:25.890Z,3.40
2023-01-13T20:09:56.857Z,3.03
2023-01-13T20:12:25.654Z,3.80
2023-01-13T20:14:55.022Z,4.60
2023-01-13T20:17:25.518Z,4.30
2023-01-13T20:19:54.544Z,3.33
2023-01-13T20:22:23.004Z,4.00
2023-01-13T20:24:55.189Z,3.17
2023-01-13T20:27:25.118Z,4.00
2023-01-13T20:29:53.507Z,4.17
2023-01-13T20:32:21.919Z,4.40
2023-01-13T20:34:50.412Z,3.77
2023-01-13T20:37:18.894Z,3.87
2023-01-13T20:39:48.197Z,3.80
2023-01-13T20:42:32.270Z,3.93
2023-01-13T20:45:02.259Z,4.00
2023-01-13T20:47:31.033Z,4.23
2023-01-13T20:49:59.850Z,4.33
2023-01-13T20:52:28.558Z,3.53
2023-01-13T20:54:57.233Z,4.10
2023-01-13T20:57:25.625Z,3.93
2023-01-13T20:59:54.099Z,3.70
2023-01-13T21:02:25.317Z,4.87
2023-01-13T21:04:53.850Z,4.70
2023-01-13T21:07:22.430Z,3.93
2023-01-13T21:09:51.115Z,3.60
2023-01-13T21:12:37.182Z,4.70
2023-01-13T21:15:22.136Z,3.97
2023-01-13T21:18:10.333Z,3.53
2023-01-13T21:20:39.629Z,3.20
2023-01-13T21:23:08.448Z,4.30
2023-01-13T21:25:39.778Z,3.70
2023-01-13T21:28:08.578Z,3.33
2023-01-13T21:30:38.191Z,4.00
2023-01-13T21:33:08.031Z,2.77
2023-01-13T21:35:39.123Z,3.73
2023-01-13T21:38:07.527Z,3.43
2023-01-13T21:40:35.928Z,3.60
2023-01-13T21:43:22.186Z,3.37
2023-01-13T21:46:08.184Z,3.90
2023-01-13T21:48:38.091Z,3.67
2023-01-13T21:51:06.602Z,4.43
2023-01-13T21:53:35.062Z,3.67
2023-01-13T21:56:03.393Z,3.20
2023-01-13T21:58:31.754Z,3.63
2023-01-13T22:01:03.107Z,3.67
2023-01-13T22:03:51.566Z,3.20
2023-01-13T22:06:21.385Z,3.87
2023-01-13T22:08:49.781Z,3.80
2023-01-13T22:11:18.252Z,4.30
2023-01-13T22:14:04.446Z,3.67
2023-01-13T22:16:34.060Z,3.83
2023-01-13T22:19:02.459Z,4.63
2023-01-13T22:21:32.238Z,3.73
2023-01-13T22:24:00.585Z,3.30
2023-01-13T22:26:29.171Z,3.80
2023-01-13T22:28:58.789Z,3.33
2023-01-13T22:31:27.243Z,3.80
2023-01-13T22:33:56.798Z,3.40
2023-01-13T22:36:26.229Z,3.60
2023-01-13T22:38:56.916Z,3.90
2023-01-13T22:41:25.448Z,3.10
2023-01-13T22:43:53.769Z,3.80
2023-01-13T22:46:22.996Z,4.40
2023-01-13T22:48:53.858Z,3.70
2023-01-13T22:51:22.941Z,4.07
2023-01-13T22:53:51.889Z,3.10
2023-01-13T22:56:22.790Z,3.43
2023-01-13T22:58:54.449Z,3.37
2023-01-13T23:01:23.620Z,4.20
2023-01-13T23:03:52.477Z,4.40
2023-01-13T23:06:21.533Z,3.33
2023-01-13T23:08:50.272Z,3.40
2023-01-13T23:11:19.661Z,3.97
2023-01-13T23:13:49.122Z,3.90
2023-01-13T23:16:18.644Z,4.10
2023-01-13T23:18:48.024Z,5.00
2023-01-13T23:21:17.439Z,4.40
2023-01-13T23:23:45.850Z,3.87
2023-01-13T23:26:14.742Z,3.90
2023-01-13T23:28:43.171Z,4.47
2023-01-13T23:31:14.830Z,3.70
2023-01-13T23:33:43.526Z,3.60
2023-01-13T23:36:14.454Z,4.23
2023-01-13T23:38:42.943Z,4.03
2023-01-13T23:41:12.767Z,4.50
2023-01-13T23:43:41.235Z,5.20
2023-01-13T23:46:10.306Z,4.57
2023-01-13T23:48:40.145Z,3.83
2023-01-13T23:51:09.907Z,4.27
2023-01-13T23:53:40.339Z,4.10
2023-01-13T23:56:11.811Z,5.10
2023-01-13T23:58:40.159Z,3.87
